Aeroporto :
LOGIN :

Iscrizione | Disclaimer

   EN    FR    IT 

 










Sommario :    VFR   VFR Marginale   IFR   IFR Intensivo   IFR Molto Intensivo
Visibilità : 
Base nubi : 
>= 8 km
>= 3000ft
5 / 8 km
1000 / 3000 ft
1500m / 5 km
500 / 1000 ft
800 / 1500m
200 / 500 ft
< 800m
< 200 ft
Simboli :   Temporali  Nebbia  Neve Forte  Precipitazioni Forti  Vento > 20 kt
SIGMETs :   Varie  Temporali  Ghiacco  Turbolenza  Onda orograficha  Ceneri Vulcaniche






- Altitudine del aeroporto : 19 ft
- Codice IATA : LCY


EGLC - London City

ULTIMO METAR :
  • 011150Z AUTO 32005KT 270V010 9999 NCD 09/M01 Q1023

METARs OBSOLETI :
  • 011120Z AUTO 30006KT 270V350 9999 NCD 09/M01 Q1024
  • 011050Z AUTO VRB03KT 9999 FEW040 09/M01 Q1024
  • 011020Z AUTO VRB03KT 9999 BKN049 09/M01 Q1024
  • 010950Z AUTO VRB02KT 9999 FEW049 08/M01 Q1025
  • 010920Z AUTO VRB01KT 9999 NCD 08/M00 Q1025

Previsioni scadute.
ATIS : +44 20 7646 0224



MetMap, La meteo Aeronautica in un colpo d'occhio ! - Copyright ORBIFLY Dicembre 2007 - Disclaimer

ORBIFLY MET'MAP TEAM :

Programmazione e sviluppo : Alexandra Zaïnal
Concezione : Baudouin d'Aumeries
Aiuto per la programmazione : Marc-Olivier Méhu
Supporto tecnico e logistico : Manuel Goepfert
Aiuto per la traduzione : Arnaldo La Scala

Contatto : metmap@orbifly.com




FONTI E CREDITI :

   NOAA